Погода Сан-Дезидериуна 2 недели

Баия, Бразилия

17 - 30 июля
  • 17июля
    Сегодня
    +14°
    +29°
    Небольшая облачность
    ВремяПогодаТемператураВлажностьДавлениеВетер, м/сВероятность осадков
    00:00Ясно и безоблачно+19°C44 %718 мм2.7 м/с5 %
    03:00Ясно и безоблачно+15°C60 %717 мм1.9 м/с5 %
    06:00Ясно и безоблачно+14°C69 %718 мм2.0 м/с5 %
    09:00Ясно и безоблачно+21°C54 %720 мм0.5 м/с5 %
    12:00Небольшая облачность+27°C36 %719 мм3.3 м/с5 %
    15:00Небольшая облачность+29°C27 %717 мм3.5 м/с5 %
    18:00Практически безоблачно+25°C35 %716 мм2.3 м/с5 %
    21:00Ясно и безоблачно+21°C47 %717 мм1.7 м/с5 %
  • 18июля
    Четверг
    +13°
    +29°
    Ясно и безоблачно
    ВремяПогодаТемператураВлажностьДавлениеВетер, м/сВероятность осадков
    00:00Ясно и безоблачно+17°C52 %717 мм2.6 м/с5 %
    03:00Ясно и безоблачно+17°C55 %716 мм2.6 м/с5 %
    06:00Ясно и безоблачно+15°C69 %716 мм2.1 м/с5 %
    09:00Ясно и безоблачно+22°C53 %719 мм0.8 м/с5 %
    12:00Ясно и безоблачно+27°C30 %717 мм2.8 м/с5 %
    15:00Ясно и безоблачно+28°C25 %715 мм2.4 м/с5 %
    18:00Ясно и безоблачно+23°C32 %715 мм2.1 м/с5 %
    21:00Ясно и безоблачно+20°C40 %717 мм1.6 м/с5 %
  • 19июля
    Пятница
    +15°
    +30°
    Ясно и безоблачно
    ВремяПогодаТемператураВлажностьДавлениеВетер, м/сВероятность осадков
    00:00Ясно и безоблачно+16°C50 %716 мм2.1 м/с5 %
    03:00Ясно и безоблачно+16°C49 %716 мм1.6 м/с5 %
    06:00Ясно и безоблачно+14°C66 %717 мм1.9 м/с5 %
    09:00Ясно и безоблачно+21°C53 %719 мм0.6 м/с5 %
    12:00Ясно и безоблачно+26°C30 %718 мм1.8 м/с5 %
    15:00Ясно и безоблачно+30°C21 %716 мм2.9 м/с5 %
    18:00Ясно и безоблачно+24°C26 %716 мм3.3 м/с5 %
    21:00Ясно и безоблачно+20°C38 %717 мм2.4 м/с5 %
  • 20июля
    Суббота
    +13°
    +29°
    Ясно и безоблачно
    ВремяПогодаТемператураВлажностьДавлениеВетер, м/сВероятность осадков
    00:00Ясно и безоблачно+19°C45 %717 мм3.2 м/с5 %
    03:00Ясно и безоблачно+19°C55 %716 мм2.5 м/с5 %
    06:00Ясно и безоблачно+15°C67 %717 мм1.9 м/с5 %
    09:00Ясно и безоблачно+22°C53 %719 мм1.3 м/с5 %
    12:00Ясно и безоблачно+27°C34 %718 мм3.3 м/с5 %
    15:00Ясно и безоблачно+28°C29 %716 мм3.2 м/с5 %
    18:00Ясно и безоблачно+24°C33 %716 мм2.5 м/с5 %
    21:00Ясно и безоблачно+22°C40 %717 мм3.2 м/с5 %
  • 21июля
    Воскресенье
    +16°
    +28°
    Ясно и безоблачно
    ВремяПогодаТемператураВлажностьДавлениеВетер, м/сВероятность осадков
    00:00Ясно и безоблачно+20°C50 %716 мм2.9 м/с5 %
    03:00Ясно и безоблачно+18°C58 %716 мм1.9 м/с5 %
    06:00Ясно и безоблачно+14°C66 %716 мм1.6 м/с5 %
    09:00Ясно и безоблачно+21°C50 %718 мм0.8 м/с5 %
    12:00Ясно и безоблачно+27°C32 %718 мм4.0 м/с5 %
    15:00Ясно и безоблачно+28°C27 %716 мм3.3 м/с5 %
    18:00Практически безоблачно+23°C32 %715 мм3.1 м/с5 %
    21:00Ясно и безоблачно+20°C38 %716 мм3.0 м/с5 %
Мы используем cookies
Соглашаюсь